sensor_id;sensor_type;location;lat;lon;timestamp;P1;durP1;ratioP1;P2;durP2;ratioP2
66761;SDS011;53672;48.176;16.338;2024-02-26T00:03:59;7.55;;;2.22;;
66761;SDS011;53672;48.176;16.338;2024-02-26T00:09:02;7.10;;;2.50;;
66761;SDS011;53672;48.176;16.338;2024-02-26T00:14:06;9.18;;;3.00;;
66761;SDS011;53672;48.176;16.338;2024-02-26T00:19:09;9.67;;;3.50;;
66761;SDS011;53672;48.176;16.338;2024-02-26T00:24:10;7.93;;;3.38;;
66761;SDS011;53672;48.176;16.338;2024-02-26T00:29:12;11.40;;;3.47;;
66761;SDS011;53672;48.176;16.338;2024-02-26T00:34:15;9.83;;;2.70;;
66761;SDS011;53672;48.176;16.338;2024-02-26T00:39:16;10.10;;;3.17;;
66761;SDS011;53672;48.176;16.338;2024-02-26T00:44:18;7.70;;;2.73;;
66761;SDS011;53672;48.176;16.338;2024-02-26T00:49:21;9.65;;;3.03;;
66761;SDS011;53672;48.176;16.338;2024-02-26T00:54:23;6.40;;;3.08;;
66761;SDS011;53672;48.176;16.338;2024-02-26T00:59:24;8.83;;;3.00;;
66761;SDS011;53672;48.176;16.338;2024-02-26T01:04:27;8.25;;;2.75;;
66761;SDS011;53672;48.176;16.338;2024-02-26T01:09:29;9.63;;;3.30;;
66761;SDS011;53672;48.176;16.338;2024-02-26T01:14:30;9.07;;;2.83;;
66761;SDS011;53672;48.176;16.338;2024-02-26T01:19:33;10.60;;;3.05;;
66761;SDS011;53672;48.176;16.338;2024-02-26T01:24:35;7.57;;;2.80;;
66761;SDS011;53672;48.176;16.338;2024-02-26T01:29:36;7.28;;;2.85;;
66761;SDS011;53672;48.176;16.338;2024-02-26T01:34:39;9.37;;;3.30;;
66761;SDS011;53672;48.176;16.338;2024-02-26T01:39:41;8.68;;;3.10;;
66761;SDS011;53672;48.176;16.338;2024-02-26T01:44:42;8.63;;;3.22;;
66761;SDS011;53672;48.176;16.338;2024-02-26T01:49:45;8.33;;;3.00;;
66761;SDS011;53672;48.176;16.338;2024-02-26T01:54:47;9.05;;;3.80;;
66761;SDS011;53672;48.176;16.338;2024-02-26T01:59:49;10.70;;;4.03;;
66761;SDS011;53672;48.176;16.338;2024-02-26T02:04:52;14.95;;;4.18;;
66761;SDS011;53672;48.176;16.338;2024-02-26T02:09:54;11.00;;;4.07;;
66761;SDS011;53672;48.176;16.338;2024-02-26T02:14:56;11.13;;;4.10;;
66761;SDS011;53672;48.176;16.338;2024-02-26T02:19:59;9.38;;;4.40;;
66761;SDS011;53672;48.176;16.338;2024-02-26T02:25:01;10.43;;;3.83;;
66761;SDS011;53672;48.176;16.338;2024-02-26T02:30:04;11.75;;;4.03;;
66761;SDS011;53672;48.176;16.338;2024-02-26T02:35:07;9.30;;;4.22;;
66761;SDS011;53672;48.176;16.338;2024-02-26T02:40:10;10.07;;;4.03;;
66761;SDS011;53672;48.176;16.338;2024-02-26T02:45:12;13.00;;;4.70;;
66761;SDS011;53672;48.176;16.338;2024-02-26T02:50:14;14.20;;;4.70;;
66761;SDS011;53672;48.176;16.338;2024-02-26T02:55:17;11.75;;;3.50;;
66761;SDS011;53672;48.176;16.338;2024-02-26T03:00:19;8.38;;;3.10;;
66761;SDS011;53672;48.176;16.338;2024-02-26T03:05:22;11.33;;;2.83;;
66761;SDS011;53672;48.176;16.338;2024-02-26T03:10:25;9.13;;;2.78;;
66761;SDS011;53672;48.176;16.338;2024-02-26T03:15:27;6.47;;;2.50;;
66761;SDS011;53672;48.176;16.338;2024-02-26T03:20:29;8.25;;;2.92;;
66761;SDS011;53672;48.176;16.338;2024-02-26T03:25:32;6.32;;;2.72;;
66761;SDS011;53672;48.176;16.338;2024-02-26T03:30:34;8.50;;;3.10;;
66761;SDS011;53672;48.176;16.338;2024-02-26T03:35:35;9.20;;;3.13;;
66761;SDS011;53672;48.176;16.338;2024-02-26T03:40:38;7.87;;;2.90;;
66761;SDS011;53672;48.176;16.338;2024-02-26T03:45:40;12.25;;;3.25;;
66761;SDS011;53672;48.176;16.338;2024-02-26T03:50:42;6.90;;;2.75;;
66761;SDS011;53672;48.176;16.338;2024-02-26T03:55:44;8.07;;;3.30;;
66761;SDS011;53672;48.176;16.338;2024-02-26T04:00:46;9.68;;;2.95;;
66761;SDS011;53672;48.176;16.338;2024-02-26T04:05:48;8.03;;;2.83;;
66761;SDS011;53672;48.176;16.338;2024-02-26T04:10:51;7.38;;;2.92;;
66761;SDS011;53672;48.176;16.338;2024-02-26T04:15:53;8.95;;;2.83;;
66761;SDS011;53672;48.176;16.338;2024-02-26T04:20:54;8.23;;;3.30;;
66761;SDS011;53672;48.176;16.338;2024-02-26T04:25:58;8.40;;;3.00;;
66761;SDS011;53672;48.176;16.338;2024-02-26T04:31:00;7.93;;;2.87;;
66761;SDS011;53672;48.176;16.338;2024-02-26T04:36:01;9.15;;;3.20;;
66761;SDS011;53672;48.176;16.338;2024-02-26T04:41:05;19.88;;;4.15;;
66761;SDS011;53672;48.176;16.338;2024-02-26T04:46:07;8.30;;;3.20;;
66761;SDS011;53672;48.176;16.338;2024-02-26T04:51:09;7.95;;;2.92;;
66761;SDS011;53672;48.176;16.338;2024-02-26T04:56:12;9.57;;;3.27;;
66761;SDS011;53672;48.176;16.338;2024-02-26T05:01:13;9.65;;;3.50;;
66761;SDS011;53672;48.176;16.338;2024-02-26T05:06:16;9.60;;;3.47;;
66761;SDS011;53672;48.176;16.338;2024-02-26T05:11:19;9.13;;;3.63;;
66761;SDS011;53672;48.176;16.338;2024-02-26T05:16:21;9.32;;;3.90;;
66761;SDS011;53672;48.176;16.338;2024-02-26T05:21:24;12.47;;;4.17;;
66761;SDS011;53672;48.176;16.338;2024-02-26T05:26:27;8.23;;;3.83;;
66761;SDS011;53672;48.176;16.338;2024-02-26T05:31:29;12.85;;;3.88;;
66761;SDS011;53672;48.176;16.338;2024-02-26T05:36:30;9.40;;;3.70;;
66761;SDS011;53672;48.176;16.338;2024-02-26T05:41:34;12.70;;;4.40;;
66761;SDS011;53672;48.176;16.338;2024-02-26T05:46:36;9.80;;;4.40;;
66761;SDS011;53672;48.176;16.338;2024-02-26T05:51:38;12.40;;;4.35;;
66761;SDS011;53672;48.176;16.338;2024-02-26T05:56:40;9.77;;;4.15;;
66761;SDS011;53672;48.176;16.338;2024-02-26T06:01:42;8.20;;;3.63;;
66761;SDS011;53672;48.176;16.338;2024-02-26T06:06:44;9.02;;;3.80;;
66761;SDS011;53672;48.176;16.338;2024-02-26T06:11:47;11.90;;;3.90;;
66761;SDS011;53672;48.176;16.338;2024-02-26T06:16:49;10.00;;;3.92;;
66761;SDS011;53672;48.176;16.338;2024-02-26T06:21:51;11.05;;;4.18;;
66761;SDS011;53672;48.176;16.338;2024-02-26T06:26:54;12.43;;;4.00;;
66761;SDS011;53672;48.176;16.338;2024-02-26T06:31:55;9.75;;;4.15;;
66761;SDS011;53672;48.176;16.338;2024-02-26T06:36:57;10.23;;;3.67;;
66761;SDS011;53672;48.176;16.338;2024-02-26T06:42:00;9.88;;;3.90;;
66761;SDS011;53672;48.176;16.338;2024-02-26T06:47:01;9.07;;;3.80;;
66761;SDS011;53672;48.176;16.338;2024-02-26T06:52:04;7.97;;;3.80;;
66761;SDS011;53672;48.176;16.338;2024-02-26T06:57:07;11.23;;;3.80;;
66761;SDS011;53672;48.176;16.338;2024-02-26T07:02:09;7.70;;;3.40;;
66761;SDS011;53672;48.176;16.338;2024-02-26T07:07:10;9.50;;;3.50;;
66761;SDS011;53672;48.176;16.338;2024-02-26T07:12:16;7.93;;;3.67;;
66761;SDS011;53672;48.176;16.338;2024-02-26T07:17:17;11.57;;;3.70;;
66761;SDS011;53672;48.176;16.338;2024-02-26T07:22:19;9.38;;;3.28;;
66761;SDS011;53672;48.176;16.338;2024-02-26T07:27:23;8.40;;;3.57;;
66761;SDS011;53672;48.176;16.338;2024-02-26T07:32:24;8.07;;;3.63;;
66761;SDS011;53672;48.176;16.338;2024-02-26T07:37:26;7.60;;;3.40;;
66761;SDS011;53672;48.176;16.338;2024-02-26T07:42:29;8.67;;;3.67;;
66761;SDS011;53672;48.176;16.338;2024-02-26T07:47:31;11.02;;;3.97;;
66761;SDS011;53672;48.176;16.338;2024-02-26T07:52:34;13.10;;;4.07;;
66761;SDS011;53672;48.176;16.338;2024-02-26T07:57:37;11.20;;;3.80;;
66761;SDS011;53672;48.176;16.338;2024-02-26T08:02:43;11.45;;;3.92;;
66761;SDS011;53672;48.176;16.338;2024-02-26T08:07:45;11.43;;;4.10;;
66761;SDS011;53672;48.176;16.338;2024-02-26T08:12:48;10.20;;;4.43;;
66761;SDS011;53672;48.176;16.338;2024-02-26T08:17:49;9.43;;;4.30;;
66761;SDS011;53672;48.176;16.338;2024-02-26T08:22:51;8.50;;;4.10;;
66761;SDS011;53672;48.176;16.338;2024-02-26T08:27:54;8.50;;;3.97;;
66761;SDS011;53672;48.176;16.338;2024-02-26T08:32:55;10.13;;;4.40;;
66761;SDS011;53672;48.176;16.338;2024-02-26T08:37:57;9.27;;;4.05;;
66761;SDS011;53672;48.176;16.338;2024-02-26T08:43:00;8.67;;;3.87;;
66761;SDS011;53672;48.176;16.338;2024-02-26T08:48:01;8.68;;;3.35;;
66761;SDS011;53672;48.176;16.338;2024-02-26T08:53:03;10.48;;;3.92;;
66761;SDS011;53672;48.176;16.338;2024-02-26T08:58:07;6.77;;;3.33;;
66761;SDS011;53672;48.176;16.338;2024-02-26T09:03:08;7.30;;;3.30;;
66761;SDS011;53672;48.176;16.338;2024-02-26T09:08:10;7.83;;;3.50;;
66761;SDS011;53672;48.176;16.338;2024-02-26T09:13:13;6.15;;;3.17;;
66761;SDS011;53672;48.176;16.338;2024-02-26T09:18:15;8.25;;;3.45;;
66761;SDS011;53672;48.176;16.338;2024-02-26T09:23:16;6.23;;;2.50;;
66761;SDS011;53672;48.176;16.338;2024-02-26T09:28:19;5.50;;;2.47;;
66761;SDS011;53672;48.176;16.338;2024-02-26T09:33:21;5.17;;;2.00;;
66761;SDS011;53672;48.176;16.338;2024-02-26T09:38:22;5.38;;;2.22;;
66761;SDS011;53672;48.176;16.338;2024-02-26T09:43:25;5.60;;;1.95;;
66761;SDS011;53672;48.176;16.338;2024-02-26T09:48:33;4.70;;;1.90;;
66761;SDS011;53672;48.176;16.338;2024-02-26T09:53:37;4.18;;;1.92;;
66761;SDS011;53672;48.176;16.338;2024-02-26T09:58:44;5.37;;;1.97;;
66761;SDS011;53672;48.176;16.338;2024-02-26T10:03:51;5.35;;;1.90;;
66761;SDS011;53672;48.176;16.338;2024-02-26T10:08:56;5.90;;;1.92;;
66761;SDS011;53672;48.176;16.338;2024-02-26T10:14:00;4.40;;;2.10;;
66761;SDS011;53672;48.176;16.338;2024-02-26T10:19:01;6.00;;;2.10;;
66761;SDS011;53672;48.176;16.338;2024-02-26T10:24:03;4.73;;;2.00;;
66761;SDS011;53672;48.176;16.338;2024-02-26T10:29:06;4.15;;;1.80;;
66761;SDS011;53672;48.176;16.338;2024-02-26T10:34:10;4.72;;;1.80;;
66761;SDS011;53672;48.176;16.338;2024-02-26T10:39:12;4.97;;;2.07;;
66761;SDS011;53672;48.176;16.338;2024-02-26T10:44:16;7.65;;;2.22;;
66761;SDS011;53672;48.176;16.338;2024-02-26T10:49:17;5.27;;;2.20;;
66761;SDS011;53672;48.176;16.338;2024-02-26T10:54:20;5.25;;;2.28;;
66761;SDS011;53672;48.176;16.338;2024-02-26T10:59:23;5.97;;;2.30;;
66761;SDS011;53672;48.176;16.338;2024-02-26T11:04:26;6.27;;;1.93;;
66761;SDS011;53672;48.176;16.338;2024-02-26T11:09:29;5.88;;;2.08;;
66761;SDS011;53672;48.176;16.338;2024-02-26T11:14:33;6.27;;;1.80;;
66761;SDS011;53672;48.176;16.338;2024-02-26T11:19:36;4.47;;;2.00;;
66761;SDS011;53672;48.176;16.338;2024-02-26T11:24:39;4.43;;;1.58;;
66761;SDS011;53672;48.176;16.338;2024-02-26T11:29:44;4.60;;;1.40;;
66761;SDS011;53672;48.176;16.338;2024-02-26T11:34:49;4.63;;;1.40;;
66761;SDS011;53672;48.176;16.338;2024-02-26T11:39:51;4.07;;;1.37;;
66761;SDS011;53672;48.176;16.338;2024-02-26T11:44:55;3.45;;;1.00;;
66761;SDS011;53672;48.176;16.338;2024-02-26T11:50:00;4.10;;;0.90;;
66761;SDS011;53672;48.176;16.338;2024-02-26T11:55:40;3.03;;;0.90;;
66761;SDS011;53672;48.176;16.338;2024-02-26T12:00:42;3.40;;;1.10;;
66761;SDS011;53672;48.176;16.338;2024-02-26T12:05:45;3.27;;;1.20;;
66761;SDS011;53672;48.176;16.338;2024-02-26T12:10:47;3.53;;;1.00;;
66761;SDS011;53672;48.176;16.338;2024-02-26T12:15:54;3.45;;;1.15;;
66761;SDS011;53672;48.176;16.338;2024-02-26T12:20:59;5.13;;;1.10;;
66761;SDS011;53672;48.176;16.338;2024-02-26T12:26:02;4.13;;;1.25;;
66761;SDS011;53672;48.176;16.338;2024-02-26T12:31:03;2.80;;;0.90;;
66761;SDS011;53672;48.176;16.338;2024-02-26T12:36:07;3.80;;;1.00;;
66761;SDS011;53672;48.176;16.338;2024-02-26T12:41:08;5.22;;;1.25;;
66761;SDS011;53672;48.176;16.338;2024-02-26T12:46:10;3.57;;;1.30;;
66761;SDS011;53672;48.176;16.338;2024-02-26T12:51:14;4.25;;;1.20;;
66761;SDS011;53672;48.176;16.338;2024-02-26T12:56:17;3.80;;;1.40;;
66761;SDS011;53672;48.176;16.338;2024-02-26T13:01:23;3.58;;;1.40;;
66761;SDS011;53672;48.176;16.338;2024-02-26T13:06:27;3.45;;;1.10;;
66761;SDS011;53672;48.176;16.338;2024-02-26T13:11:29;4.57;;;1.40;;
66761;SDS011;53672;48.176;16.338;2024-02-26T13:16:31;4.18;;;1.33;;
66761;SDS011;53672;48.176;16.338;2024-02-26T13:21:34;3.77;;;1.23;;
66761;SDS011;53672;48.176;16.338;2024-02-26T13:26:36;4.95;;;1.20;;
66761;SDS011;53672;48.176;16.338;2024-02-26T13:31:38;4.57;;;1.10;;
66761;SDS011;53672;48.176;16.338;2024-02-26T13:36:42;3.80;;;0.90;;
66761;SDS011;53672;48.176;16.338;2024-02-26T13:41:43;5.47;;;1.15;;
66761;SDS011;53672;48.176;16.338;2024-02-26T13:46:46;3.70;;;1.10;;
66761;SDS011;53672;48.176;16.338;2024-02-26T13:51:49;3.50;;;1.00;;
66761;SDS011;53672;48.176;16.338;2024-02-26T13:56:50;3.72;;;1.20;;
66761;SDS011;53672;48.176;16.338;2024-02-26T14:01:52;3.57;;;1.20;;
66761;SDS011;53672;48.176;16.338;2024-02-26T14:06:56;4.32;;;1.13;;
66761;SDS011;53672;48.176;16.338;2024-02-26T14:11:58;4.50;;;1.20;;
66761;SDS011;53672;48.176;16.338;2024-02-26T14:17:00;4.78;;;1.10;;
66761;SDS011;53672;48.176;16.338;2024-02-26T14:22:05;4.07;;;1.13;;
66761;SDS011;53672;48.176;16.338;2024-02-26T14:27:07;4.20;;;1.20;;
66761;SDS011;53672;48.176;16.338;2024-02-26T14:32:10;4.53;;;1.45;;
66761;SDS011;53672;48.176;16.338;2024-02-26T14:37:13;3.33;;;0.90;;
66761;SDS011;53672;48.176;16.338;2024-02-26T14:42:15;4.07;;;1.00;;
66761;SDS011;53672;48.176;16.338;2024-02-26T14:47:17;2.88;;;1.10;;
66761;SDS011;53672;48.176;16.338;2024-02-26T14:52:20;3.43;;;1.10;;
66761;SDS011;53672;48.176;16.338;2024-02-26T14:57:22;3.53;;;0.93;;
66761;SDS011;53672;48.176;16.338;2024-02-26T15:02:24;3.17;;;1.00;;
66761;SDS011;53672;48.176;16.338;2024-02-26T15:07:27;3.75;;;1.13;;
66761;SDS011;53672;48.176;16.338;2024-02-26T15:12:29;3.50;;;1.10;;
66761;SDS011;53672;48.176;16.338;2024-02-26T15:17:30;4.70;;;1.30;;
66761;SDS011;53672;48.176;16.338;2024-02-26T15:22:36;6.03;;;1.27;;
66761;SDS011;53672;48.176;16.338;2024-02-26T15:27:38;5.67;;;1.83;;
66761;SDS011;53672;48.176;16.338;2024-02-26T15:32:39;5.50;;;1.00;;
66761;SDS011;53672;48.176;16.338;2024-02-26T15:37:44;5.72;;;1.13;;
66761;SDS011;53672;48.176;16.338;2024-02-26T15:42:46;3.70;;;1.03;;
66761;SDS011;53672;48.176;16.338;2024-02-26T15:47:47;4.65;;;1.20;;
66761;SDS011;53672;48.176;16.338;2024-02-26T15:52:50;3.50;;;1.20;;
66761;SDS011;53672;48.176;16.338;2024-02-26T15:57:52;4.45;;;1.00;;
66761;SDS011;53672;48.176;16.338;2024-02-26T16:02:53;3.33;;;1.33;;
66761;SDS011;53672;48.176;16.338;2024-02-26T16:07:56;3.97;;;1.10;;
66761;SDS011;53672;48.176;16.338;2024-02-26T16:13:04;2.90;;;1.00;;
66761;SDS011;53672;48.176;16.338;2024-02-26T16:18:06;3.87;;;1.20;;
66761;SDS011;53672;48.176;16.338;2024-02-26T16:23:09;5.45;;;0.93;;
66761;SDS011;53672;48.176;16.338;2024-02-26T16:28:10;3.78;;;1.20;;
66761;SDS011;53672;48.176;16.338;2024-02-26T16:33:12;3.77;;;1.20;;
66761;SDS011;53672;48.176;16.338;2024-02-26T16:38:15;4.18;;;1.20;;
66761;SDS011;53672;48.176;16.338;2024-02-26T16:43:16;4.30;;;1.30;;
66761;SDS011;53672;48.176;16.338;2024-02-26T16:48:18;4.50;;;1.25;;
66761;SDS011;53672;48.176;16.338;2024-02-26T16:53:21;4.15;;;1.27;;
66761;SDS011;53672;48.176;16.338;2024-02-26T16:58:22;3.70;;;1.00;;
66761;SDS011;53672;48.176;16.338;2024-02-26T17:03:25;4.97;;;1.35;;
66761;SDS011;53672;48.176;16.338;2024-02-26T17:08:28;4.97;;;1.50;;
66761;SDS011;53672;48.176;16.338;2024-02-26T17:13:33;3.35;;;1.23;;
66761;SDS011;53672;48.176;16.338;2024-02-26T17:18:35;3.47;;;1.10;;
66761;SDS011;53672;48.176;16.338;2024-02-26T17:23:38;5.90;;;1.23;;
66761;SDS011;53672;48.176;16.338;2024-02-26T17:28:40;4.30;;;1.27;;
66761;SDS011;53672;48.176;16.338;2024-02-26T17:33:42;3.50;;;1.40;;
66761;SDS011;53672;48.176;16.338;2024-02-26T17:38:45;3.28;;;1.08;;
66761;SDS011;53672;48.176;16.338;2024-02-26T17:43:48;4.75;;;1.38;;
66761;SDS011;53672;48.176;16.338;2024-02-26T17:48:49;3.53;;;1.30;;
66761;SDS011;53672;48.176;16.338;2024-02-26T17:53:52;6.43;;;1.25;;
66761;SDS011;53672;48.176;16.338;2024-02-26T17:58:55;4.37;;;1.43;;
66761;SDS011;53672;48.176;16.338;2024-02-26T18:03:56;3.90;;;1.42;;
66761;SDS011;53672;48.176;16.338;2024-02-26T18:08:59;4.03;;;1.40;;
66761;SDS011;53672;48.176;16.338;2024-02-26T18:14:01;3.30;;;1.30;;
66761;SDS011;53672;48.176;16.338;2024-02-26T18:19:03;4.35;;;1.30;;
66761;SDS011;53672;48.176;16.338;2024-02-26T18:24:07;4.40;;;1.40;;
66761;SDS011;53672;48.176;16.338;2024-02-26T18:29:09;6.35;;;1.70;;
66761;SDS011;53672;48.176;16.338;2024-02-26T18:34:12;4.60;;;1.48;;
66761;SDS011;53672;48.176;16.338;2024-02-26T18:39:16;5.87;;;1.70;;
66761;SDS011;53672;48.176;16.338;2024-02-26T18:44:20;6.05;;;1.40;;
66761;SDS011;53672;48.176;16.338;2024-02-26T18:49:23;5.10;;;1.40;;
66761;SDS011;53672;48.176;16.338;2024-02-26T18:54:31;4.38;;;1.50;;
66761;SDS011;53672;48.176;16.338;2024-02-26T18:59:34;4.90;;;1.23;;
66761;SDS011;53672;48.176;16.338;2024-02-26T19:04:38;4.87;;;1.40;;
66761;SDS011;53672;48.176;16.338;2024-02-26T19:09:43;4.50;;;1.30;;
66761;SDS011;53672;48.176;16.338;2024-02-26T19:14:48;6.47;;;1.63;;
66761;SDS011;53672;48.176;16.338;2024-02-26T19:19:52;7.80;;;1.80;;
66761;SDS011;53672;48.176;16.338;2024-02-26T19:24:57;4.38;;;1.35;;
66761;SDS011;53672;48.176;16.338;2024-02-26T19:30:00;7.00;;;1.70;;
66761;SDS011;53672;48.176;16.338;2024-02-26T19:35:05;7.03;;;1.50;;
66761;SDS011;53672;48.176;16.338;2024-02-26T19:40:11;6.20;;;1.53;;
66761;SDS011;53672;48.176;16.338;2024-02-26T19:45:18;5.00;;;1.50;;
66761;SDS011;53672;48.176;16.338;2024-02-26T19:50:22;4.13;;;1.45;;
66761;SDS011;53672;48.176;16.338;2024-02-26T19:55:29;5.13;;;1.50;;
66761;SDS011;53672;48.176;16.338;2024-02-26T20:00:35;4.65;;;1.40;;
66761;SDS011;53672;48.176;16.338;2024-02-26T20:05:40;4.57;;;1.40;;
66761;SDS011;53672;48.176;16.338;2024-02-26T20:10:53;4.07;;;1.27;;
66761;SDS011;53672;48.176;16.338;2024-02-26T20:15:56;4.60;;;1.20;;
66761;SDS011;53672;48.176;16.338;2024-02-26T20:21:01;4.27;;;1.50;;
66761;SDS011;53672;48.176;16.338;2024-02-26T20:26:07;4.53;;;1.40;;
66761;SDS011;53672;48.176;16.338;2024-02-26T20:31:12;4.80;;;1.30;;
66761;SDS011;53672;48.176;16.338;2024-02-26T20:36:15;3.80;;;1.40;;
66761;SDS011;53672;48.176;16.338;2024-02-26T20:41:25;4.65;;;1.52;;
66761;SDS011;53672;48.176;16.338;2024-02-26T20:46:30;5.37;;;1.40;;
66761;SDS011;53672;48.176;16.338;2024-02-26T20:51:34;4.88;;;1.42;;
66761;SDS011;53672;48.176;16.338;2024-02-26T20:56:39;4.40;;;1.50;;
66761;SDS011;53672;48.176;16.338;2024-02-26T21:01:42;5.72;;;1.50;;
66761;SDS011;53672;48.176;16.338;2024-02-26T21:06:45;5.13;;;1.70;;
66761;SDS011;53672;48.176;16.338;2024-02-26T21:11:49;5.00;;;1.60;;
66761;SDS011;53672;48.176;16.338;2024-02-26T21:16:51;3.85;;;1.50;;
66761;SDS011;53672;48.176;16.338;2024-02-26T21:21:53;6.70;;;1.47;;
66761;SDS011;53672;48.176;16.338;2024-02-26T21:26:56;6.15;;;1.80;;
66761;SDS011;53672;48.176;16.338;2024-02-26T21:31:58;4.78;;;1.50;;
66761;SDS011;53672;48.176;16.338;2024-02-26T21:36:59;5.93;;;1.60;;
66761;SDS011;53672;48.176;16.338;2024-02-26T21:42:03;5.15;;;1.45;;
66761;SDS011;53672;48.176;16.338;2024-02-26T21:47:04;5.23;;;1.60;;
66761;SDS011;53672;48.176;16.338;2024-02-26T21:52:07;5.18;;;1.70;;
66761;SDS011;53672;48.176;16.338;2024-02-26T21:57:10;4.75;;;1.40;;
66761;SDS011;53672;48.176;16.338;2024-02-26T22:02:13;5.93;;;1.83;;
66761;SDS011;53672;48.176;16.338;2024-02-26T22:07:17;4.63;;;1.60;;
66761;SDS011;53672;48.176;16.338;2024-02-26T22:12:21;5.80;;;1.80;;
66761;SDS011;53672;48.176;16.338;2024-02-26T22:17:22;5.60;;;1.55;;
66761;SDS011;53672;48.176;16.338;2024-02-26T22:22:24;7.15;;;1.80;;
66761;SDS011;53672;48.176;16.338;2024-02-26T22:27:27;5.63;;;1.60;;
66761;SDS011;53672;48.176;16.338;2024-02-26T22:32:28;6.90;;;1.75;;
66761;SDS011;53672;48.176;16.338;2024-02-26T22:37:30;4.97;;;1.50;;
66761;SDS011;53672;48.176;16.338;2024-02-26T22:42:33;4.45;;;1.52;;
66761;SDS011;53672;48.176;16.338;2024-02-26T22:47:36;6.78;;;1.60;;
66761;SDS011;53672;48.176;16.338;2024-02-26T22:52:37;4.87;;;1.47;;
66761;SDS011;53672;48.176;16.338;2024-02-26T22:57:41;3.78;;;1.40;;
66761;SDS011;53672;48.176;16.338;2024-02-26T23:02:43;4.37;;;1.30;;
66761;SDS011;53672;48.176;16.338;2024-02-26T23:07:58;5.05;;;1.30;;
66761;SDS011;53672;48.176;16.338;2024-02-26T23:13:01;5.00;;;1.20;;
66761;SDS011;53672;48.176;16.338;2024-02-26T23:18:03;4.53;;;1.30;;
66761;SDS011;53672;48.176;16.338;2024-02-26T23:23:05;5.00;;;1.45;;
66761;SDS011;53672;48.176;16.338;2024-02-26T23:28:08;6.03;;;1.60;;
66761;SDS011;53672;48.176;16.338;2024-02-26T23:33:11;3.85;;;1.50;;
66761;SDS011;53672;48.176;16.338;2024-02-26T23:38:13;4.90;;;1.35;;
66761;SDS011;53672;48.176;16.338;2024-02-26T23:43:16;4.30;;;1.50;;
66761;SDS011;53672;48.176;16.338;2024-02-26T23:48:17;3.58;;;1.20;;
66761;SDS011;53672;48.176;16.338;2024-02-26T23:53:19;3.60;;;1.30;;
66761;SDS011;53672;48.176;16.338;2024-02-26T23:58:22;4.40;;;1.25;;
